HBH1140 ZBAA-ZHCC
Flight info
| Callsign | HBH1140 |
|---|---|
| Flight time | 1h 5m |
| Altitude | 38100 |
| Route | RUSDO6J RUSDO W45 VAGBI B215 EKETA/K0880S1190 B208 NOPIN NOP9U |
| Aircraft | B77W/H-SDE1E2E3FGHIJ2J3J4J5M1RWXY/LB1D1 |
Departure
| Time | 2026-04-20 15:12 |
|---|---|
| Airport | Beijing Capital International Airport (ZBAA) |
Arrival
| Time | 2026-04-20 16:17 |
|---|---|
| Airport | Zhengzhou Xinzheng International Airport (ZHCC) |
| Time | Latitude | Longitude | Altitude | Speed | Heading |
|---|---|---|---|---|---|
| 2026-04-20 14:26 | 40.08007 | 116.58979 | 124 ft | 0 kts | 263° |
| 2026-04-20 14:52 | 40.08008 | 116.58987 | 129 ft | 4 kts | 263° |
| 2026-04-20 14:52 | 40.08011 | 116.59022 | 124 ft | 4 kts | 263° |
| 2026-04-20 14:52 | 40.08014 | 116.59057 | 124 ft | 4 kts | 263° |
| 2026-04-20 14:53 | 40.08017 | 116.59092 | 124 ft | 4 kts | 263° |
| 2026-04-20 14:53 | 40.08021 | 116.59127 | 126 ft | 4 kts | 263° |
| 2026-04-20 14:53 | 40.08024 | 116.59162 | 124 ft | 4 kts | 263° |
| 2026-04-20 14:53 | 40.08027 | 116.59192 | 125 ft | 4 kts | 271° |
| 2026-04-20 14:54 | 40.08020 | 116.59217 | 124 ft | 4 kts | 339° |
| 2026-04-20 14:54 | 40.07994 | 116.59223 | 124 ft | 3 kts | 354° |
| 2026-04-20 14:54 | 40.07990 | 116.59223 | 124 ft | 0 kts | 353° |
| 2026-04-20 14:58 | 40.07991 | 116.59223 | 124 ft | 0 kts | 353° |
| 2026-04-20 14:58 | 40.07994 | 116.59223 | 124 ft | 1 kts | 353° |
| 2026-04-20 14:59 | 40.07999 | 116.59222 | 124 ft | 1 kts | 353° |
| 2026-04-20 14:59 | 40.08007 | 116.59221 | 124 ft | 1 kts | 353° |
| 2026-04-20 14:59 | 40.08017 | 116.59219 | 124 ft | 2 kts | 353° |
| 2026-04-20 14:59 | 40.08029 | 116.59217 | 124 ft | 2 kts | 353° |
| 2026-04-20 15:00 | 40.08043 | 116.59215 | 129 ft | 2 kts | 353° |
| 2026-04-20 15:00 | 40.08059 | 116.59212 | 125 ft | 2 kts | 353° |
| 2026-04-20 15:00 | 40.08077 | 116.59210 | 125 ft | 3 kts | 353° |
| 2026-04-20 15:00 | 40.08097 | 116.59206 | 127 ft | 3 kts | 353° |
| 2026-04-20 15:01 | 40.08118 | 116.59203 | 125 ft | 3 kts | 353° |
| 2026-04-20 15:01 | 40.08142 | 116.59199 | 126 ft | 4 kts | 353° |
| 2026-04-20 15:01 | 40.08167 | 116.59195 | 127 ft | 4 kts | 353° |
| 2026-04-20 15:01 | 40.08194 | 116.59191 | 126 ft | 4 kts | 353° |
| 2026-04-20 15:02 | 40.08222 | 116.59186 | 126 ft | 4 kts | 353° |
| 2026-04-20 15:02 | 40.08252 | 116.59181 | 126 ft | 4 kts | 353° |
| 2026-04-20 15:02 | 40.08284 | 116.59176 | 126 ft | 5 kts | 353° |
| 2026-04-20 15:02 | 40.08317 | 116.59171 | 124 ft | 5 kts | 353° |
| 2026-04-20 15:03 | 40.08352 | 116.59165 | 126 ft | 5 kts | 353° |
| 2026-04-20 15:03 | 40.08388 | 116.59160 | 124 ft | 5 kts | 353° |
| 2026-04-20 15:03 | 40.08425 | 116.59154 | 125 ft | 6 kts | 353° |
| 2026-04-20 15:03 | 40.08464 | 116.59148 | 126 ft | 6 kts | 354° |
| 2026-04-20 15:04 | 40.08504 | 116.59142 | 126 ft | 6 kts | 353° |
| 2026-04-20 15:04 | 40.08544 | 116.59137 | 126 ft | 6 kts | 353° |
| 2026-04-20 15:04 | 40.08584 | 116.59131 | 126 ft | 6 kts | 353° |
| 2026-04-20 15:04 | 40.08625 | 116.59124 | 126 ft | 6 kts | 353° |
| 2026-04-20 15:05 | 40.08667 | 116.59118 | 126 ft | 6 kts | 353° |
| 2026-04-20 15:05 | 40.08709 | 116.59111 | 127 ft | 6 kts | 353° |
| 2026-04-20 15:05 | 40.08754 | 116.59104 | 125 ft | 6 kts | 353° |
| 2026-04-20 15:05 | 40.08798 | 116.59096 | 126 ft | 7 kts | 353° |
| 2026-04-20 15:06 | 40.08845 | 116.59088 | 125 ft | 7 kts | 353° |
| 2026-04-20 15:06 | 40.08894 | 116.59080 | 126 ft | 7 kts | 352° |
| 2026-04-20 15:06 | 40.08944 | 116.59083 | 126 ft | 7 kts | 17° |
| 2026-04-20 15:06 | 40.08981 | 116.59125 | 119 ft | 7 kts | 66° |
| 2026-04-20 15:07 | 40.08983 | 116.59194 | 138 ft | 8 kts | 90° |
| 2026-04-20 15:07 | 40.08985 | 116.59264 | 129 ft | 8 kts | 89° |
| 2026-04-20 15:07 | 40.08979 | 116.59334 | 129 ft | 8 kts | 106° |
| 2026-04-20 15:07 | 40.08962 | 116.59381 | 128 ft | 0 kts | 121° |
| 2026-04-20 15:08 | 40.08961 | 116.59381 | 129 ft | 0 kts | 121° |
| 2026-04-20 15:08 | 40.08960 | 116.59384 | 129 ft | 1 kts | 121° |
| 2026-04-20 15:08 | 40.08956 | 116.59392 | 124 ft | 1 kts | 123° |
| 2026-04-20 15:09 | 40.08951 | 116.59402 | 125 ft | 2 kts | 123° |
| 2026-04-20 15:09 | 40.08944 | 116.59416 | 125 ft | 2 kts | 124° |
| 2026-04-20 15:09 | 40.08935 | 116.59433 | 125 ft | 2 kts | 126° |
| 2026-04-20 15:09 | 40.08923 | 116.59451 | 126 ft | 3 kts | 134° |
| 2026-04-20 15:10 | 40.08907 | 116.59469 | 124 ft | 3 kts | 144° |
| 2026-04-20 15:10 | 40.08887 | 116.59486 | 126 ft | 4 kts | 146° |
| 2026-04-20 15:10 | 40.08865 | 116.59497 | 126 ft | 4 kts | 172° |
| 2026-04-20 15:10 | 40.08859 | 116.59498 | 127 ft | 0 kts | 172° |
| 2026-04-20 15:11 | 40.08839 | 116.59501 | 124 ft | 19 kts | 173° |
| 2026-04-20 15:11 | 40.08366 | 116.59579 | 127 ft | 118 kts | 173° |
| 2026-04-20 15:11 | 40.07275 | 116.59727 | 298 ft | 185 kts | 176° |
| 2026-04-20 15:12 | 40.06048 | 116.59906 | 1403 ft | 179 kts | 178° |
| 2026-04-20 15:12 | 40.04770 | 116.60107 | 2227 ft | 197 kts | 178° |
| 2026-04-20 15:12 | 40.03293 | 116.60332 | 2476 ft | 230 kts | 177° |
| 2026-04-20 15:12 | 40.01616 | 116.60594 | 3022 ft | 251 kts | 176° |
| 2026-04-20 15:13 | 39.99852 | 116.60874 | 3792 ft | 265 kts | 176° |
| 2026-04-20 15:13 | 39.97991 | 116.61170 | 4699 ft | 273 kts | 176° |
| 2026-04-20 15:13 | 39.96080 | 116.61474 | 5672 ft | 279 kts | 176° |
| 2026-04-20 15:13 | 39.94140 | 116.61782 | 6671 ft | 284 kts | 176° |
| 2026-04-20 15:14 | 39.92157 | 116.62095 | 7569 ft | 290 kts | 176° |
| 2026-04-20 15:14 | 39.90129 | 116.62414 | 8409 ft | 296 kts | 176° |
| 2026-04-20 15:14 | 39.88060 | 116.62738 | 8845 ft | 302 kts | 176° |
| 2026-04-20 15:14 | 39.85950 | 116.63068 | 8845 ft | 307 kts | 176° |
| 2026-04-20 15:15 | 39.83831 | 116.63399 | 9076 ft | 307 kts | 176° |
| 2026-04-20 15:15 | 39.81697 | 116.63728 | 9990 ft | 311 kts | 176° |
| 2026-04-20 15:15 | 39.79525 | 116.64058 | 10733 ft | 323 kts | 176° |
| 2026-04-20 15:15 | 39.77232 | 116.64403 | 11005 ft | 351 kts | 176° |
| 2026-04-20 15:16 | 39.74709 | 116.64784 | 11265 ft | 379 kts | 175° |
| 2026-04-20 15:16 | 39.72054 | 116.65041 | 11742 ft | 386 kts | 186° |
| 2026-04-20 15:16 | 39.69482 | 116.64132 | 12424 ft | 384 kts | 211° |
| 2026-04-20 15:16 | 39.67388 | 116.62062 | 13586 ft | 377 kts | 230° |
| 2026-04-20 15:17 | 39.65916 | 116.59292 | 14648 ft | 373 kts | 246° |
| 2026-04-20 15:17 | 39.65101 | 116.56118 | 15534 ft | 370 kts | 263° |
| 2026-04-20 15:17 | 39.64844 | 116.52784 | 15868 ft | 377 kts | 268° |
| 2026-04-20 15:17 | 39.64665 | 116.49381 | 15847 ft | 378 kts | 268° |
| 2026-04-20 15:18 | 39.64494 | 116.45995 | 15886 ft | 377 kts | 268° |
| 2026-04-20 15:18 | 39.64312 | 116.42625 | 16705 ft | 379 kts | 268° |
| 2026-04-20 15:18 | 39.64092 | 116.39190 | 17835 ft | 374 kts | 265° |
| 2026-04-20 15:18 | 39.63328 | 116.35973 | 18598 ft | 388 kts | 246° |
| 2026-04-20 15:19 | 39.61715 | 116.33118 | 19420 ft | 397 kts | 232° |
| 2026-04-20 15:19 | 39.59610 | 116.30720 | 19759 ft | 408 kts | 225° |
| 2026-04-20 15:19 | 39.57361 | 116.28447 | 19743 ft | 410 kts | 224° |
| 2026-04-20 15:19 | 39.55096 | 116.26220 | 19748 ft | 408 kts | 223° |
| 2026-04-20 15:20 | 39.52827 | 116.24002 | 19963 ft | 411 kts | 224° |
| 2026-04-20 15:20 | 39.50536 | 116.21751 | 20761 ft | 414 kts | 225° |
| 2026-04-20 15:20 | 39.48251 | 116.19493 | 21651 ft | 414 kts | 225° |
| 2026-04-20 15:20 | 39.45961 | 116.17218 | 22487 ft | 416 kts | 226° |
| 2026-04-20 15:21 | 39.43695 | 116.14954 | 23226 ft | 419 kts | 227° |
| 2026-04-20 15:21 | 39.41382 | 116.12637 | 23879 ft | 423 kts | 227° |
| 2026-04-20 15:21 | 39.39045 | 116.10294 | 24488 ft | 426 kts | 227° |
| 2026-04-20 15:21 | 39.36697 | 116.07942 | 25103 ft | 428 kts | 228° |
| 2026-04-20 15:22 | 39.34340 | 116.05582 | 25666 ft | 431 kts | 229° |
| 2026-04-20 15:22 | 39.31959 | 116.03199 | 26218 ft | 434 kts | 229° |
| 2026-04-20 15:22 | 39.29559 | 116.00801 | 26768 ft | 437 kts | 229° |
| 2026-04-20 15:22 | 39.27145 | 115.98391 | 27309 ft | 440 kts | 229° |
| 2026-04-20 15:23 | 39.24746 | 115.95998 | 27845 ft | 443 kts | 229° |
| 2026-04-20 15:23 | 39.22300 | 115.93561 | 28313 ft | 446 kts | 229° |
| 2026-04-20 15:23 | 39.19832 | 115.91103 | 28762 ft | 450 kts | 230° |
| 2026-04-20 15:23 | 39.17346 | 115.88630 | 29196 ft | 453 kts | 230° |
| 2026-04-20 15:24 | 39.14844 | 115.86145 | 29629 ft | 455 kts | 230° |
| 2026-04-20 15:24 | 39.12334 | 115.83658 | 30127 ft | 456 kts | 230° |
| 2026-04-20 15:24 | 39.09820 | 115.81170 | 30577 ft | 455 kts | 230° |
| 2026-04-20 15:24 | 39.07325 | 115.78708 | 31174 ft | 450 kts | 229° |
| 2026-04-20 15:25 | 39.04855 | 115.76278 | 31858 ft | 442 kts | 229° |
| 2026-04-20 15:25 | 39.02433 | 115.73894 | 32449 ft | 436 kts | 229° |
| 2026-04-20 15:25 | 39.00071 | 115.71564 | 32921 ft | 432 kts | 229° |
| 2026-04-20 15:25 | 38.97691 | 115.69212 | 33342 ft | 431 kts | 229° |
| 2026-04-20 15:26 | 38.95324 | 115.66872 | 33751 ft | 429 kts | 229° |
| 2026-04-20 15:26 | 38.92966 | 115.64544 | 34158 ft | 427 kts | 229° |
| 2026-04-20 15:26 | 38.90612 | 115.62221 | 34161 ft | 426 kts | 229° |
| 2026-04-20 15:27 | 38.85989 | 115.57684 | 34132 ft | 413 kts | 228° |
| 2026-04-20 15:27 | 38.81435 | 115.53206 | 34176 ft | 414 kts | 228° |
| 2026-04-20 15:28 | 38.76887 | 115.48735 | 34197 ft | 416 kts | 228° |
| 2026-04-20 15:28 | 38.72279 | 115.44220 | 34201 ft | 417 kts | 228° |
| 2026-04-20 15:29 | 38.67665 | 115.39714 | 34174 ft | 417 kts | 227° |
| 2026-04-20 15:29 | 38.63051 | 115.35217 | 34188 ft | 417 kts | 227° |
| 2026-04-20 15:30 | 38.58474 | 115.30762 | 34187 ft | 416 kts | 227° |
| 2026-04-20 15:30 | 38.53876 | 115.26293 | 34197 ft | 415 kts | 227° |
| 2026-04-20 15:31 | 38.49281 | 115.21834 | 34188 ft | 414 kts | 226° |
| 2026-04-20 15:31 | 38.44692 | 115.17386 | 34191 ft | 416 kts | 226° |
| 2026-04-20 15:32 | 38.40054 | 115.12887 | 34209 ft | 427 kts | 226° |
| 2026-04-20 15:32 | 38.35284 | 115.08277 | 34199 ft | 431 kts | 226° |
| 2026-04-20 15:33 | 38.30500 | 115.03675 | 34196 ft | 430 kts | 226° |
| 2026-04-20 15:33 | 38.25733 | 114.99094 | 34197 ft | 429 kts | 226° |
| 2026-04-20 15:34 | 38.21007 | 114.94555 | 34197 ft | 428 kts | 226° |
| 2026-04-20 15:34 | 38.16258 | 114.89999 | 34165 ft | 428 kts | 225° |
| 2026-04-20 15:35 | 38.11504 | 114.85445 | 34198 ft | 429 kts | 225° |
| 2026-04-20 15:35 | 38.06736 | 114.80885 | 34204 ft | 430 kts | 225° |
| 2026-04-20 15:36 | 38.01949 | 114.76316 | 34202 ft | 431 kts | 225° |
| 2026-04-20 15:36 | 37.97182 | 114.71774 | 34188 ft | 432 kts | 225° |
| 2026-04-20 15:37 | 37.92370 | 114.67197 | 34199 ft | 433 kts | 225° |
| 2026-04-20 15:37 | 37.87538 | 114.62609 | 34203 ft | 435 kts | 225° |
| 2026-04-20 15:38 | 37.82693 | 114.58016 | 34206 ft | 435 kts | 225° |
| 2026-04-20 15:38 | 37.77839 | 114.53424 | 34200 ft | 436 kts | 225° |
| 2026-04-20 15:39 | 37.73002 | 114.48853 | 34206 ft | 437 kts | 225° |
| 2026-04-20 15:39 | 37.68120 | 114.44247 | 34207 ft | 439 kts | 225° |
| 2026-04-20 15:40 | 37.63228 | 114.39640 | 34193 ft | 439 kts | 225° |
| 2026-04-20 15:40 | 37.58320 | 114.35028 | 34211 ft | 440 kts | 225° |
| 2026-04-20 15:41 | 37.53436 | 114.30445 | 34215 ft | 441 kts | 225° |
| 2026-04-20 15:41 | 37.48511 | 114.25831 | 34239 ft | 442 kts | 225° |
| 2026-04-20 15:42 | 37.43570 | 114.21208 | 34197 ft | 442 kts | 225° |
| 2026-04-20 15:42 | 37.38707 | 114.16681 | 34075 ft | 429 kts | 225° |
| 2026-04-20 15:42 | 37.36321 | 114.14460 | 33914 ft | 425 kts | 225° |
| 2026-04-20 15:43 | 37.33951 | 114.12250 | 33623 ft | 425 kts | 225° |
| 2026-04-20 15:43 | 37.31608 | 114.10063 | 33238 ft | 426 kts | 225° |
| 2026-04-20 15:43 | 37.29225 | 114.07840 | 32817 ft | 428 kts | 224° |
| 2026-04-20 15:43 | 37.26826 | 114.05605 | 32375 ft | 429 kts | 224° |
| 2026-04-20 15:44 | 37.24424 | 114.03372 | 31992 ft | 430 kts | 224° |
| 2026-04-20 15:44 | 37.22017 | 114.01137 | 31593 ft | 431 kts | 224° |
| 2026-04-20 15:44 | 37.19599 | 113.98895 | 31178 ft | 433 kts | 224° |
| 2026-04-20 15:44 | 37.17176 | 113.96649 | 30772 ft | 434 kts | 223° |
| 2026-04-20 15:45 | 37.14744 | 113.94399 | 30359 ft | 435 kts | 223° |
| 2026-04-20 15:45 | 37.12303 | 113.92140 | 29856 ft | 437 kts | 223° |
| 2026-04-20 15:45 | 37.09884 | 113.89904 | 29299 ft | 440 kts | 223° |
| 2026-04-20 15:45 | 37.07413 | 113.87621 | 28706 ft | 442 kts | 223° |
| 2026-04-20 15:46 | 37.04930 | 113.85330 | 28110 ft | 445 kts | 223° |
| 2026-04-20 15:46 | 37.02430 | 113.83022 | 27514 ft | 448 kts | 223° |
| 2026-04-20 15:46 | 36.99909 | 113.80698 | 26869 ft | 453 kts | 223° |
| 2026-04-20 15:46 | 36.98225 | 113.79148 | 26441 ft | 455 kts | 223° |
| 2026-04-20 15:47 | 36.95670 | 113.76795 | 26021 ft | 459 kts | 223° |
| 2026-04-20 15:47 | 36.93086 | 113.74419 | 25893 ft | 461 kts | 222° |
| 2026-04-20 15:47 | 36.90499 | 113.72049 | 25774 ft | 460 kts | 222° |
| 2026-04-20 15:47 | 36.87924 | 113.69691 | 25772 ft | 459 kts | 222° |
| 2026-04-20 15:48 | 36.84511 | 113.66564 | 25772 ft | 460 kts | 222° |
| 2026-04-20 15:48 | 36.82799 | 113.64996 | 25778 ft | 461 kts | 222° |
| 2026-04-20 15:48 | 36.80217 | 113.62633 | 25776 ft | 461 kts | 222° |
| 2026-04-20 15:48 | 36.77633 | 113.60269 | 25785 ft | 461 kts | 222° |
| 2026-04-20 15:49 | 36.75048 | 113.57908 | 25782 ft | 461 kts | 222° |
| 2026-04-20 15:49 | 36.72461 | 113.55546 | 25782 ft | 461 kts | 222° |
| 2026-04-20 15:49 | 36.69877 | 113.53188 | 25758 ft | 460 kts | 221° |
| 2026-04-20 15:49 | 36.66466 | 113.50082 | 25779 ft | 457 kts | 221° |
| 2026-04-20 15:50 | 36.63894 | 113.47747 | 25774 ft | 457 kts | 221° |
| 2026-04-20 15:50 | 36.62162 | 113.46173 | 25782 ft | 456 kts | 221° |
| 2026-04-20 15:50 | 36.59601 | 113.43843 | 25775 ft | 456 kts | 221° |
| 2026-04-20 15:50 | 36.57078 | 113.41547 | 25773 ft | 455 kts | 221° |
| 2026-04-20 15:51 | 36.54535 | 113.39236 | 25753 ft | 450 kts | 221° |
| 2026-04-20 15:51 | 36.52031 | 113.36968 | 25693 ft | 442 kts | 221° |
| 2026-04-20 15:51 | 36.49564 | 113.34737 | 25615 ft | 435 kts | 221° |
| 2026-04-20 15:51 | 36.46349 | 113.31827 | 25366 ft | 430 kts | 221° |
| 2026-04-20 15:52 | 36.44713 | 113.30346 | 25167 ft | 430 kts | 221° |
| 2026-04-20 15:52 | 36.42289 | 113.28151 | 24784 ft | 432 kts | 221° |
| 2026-04-20 15:52 | 36.39888 | 113.25976 | 24365 ft | 435 kts | 221° |
| 2026-04-20 15:53 | 36.34967 | 113.21535 | 23489 ft | 440 kts | 220° |
| 2026-04-20 15:53 | 36.32487 | 113.19300 | 22977 ft | 442 kts | 220° |
| 2026-04-20 15:53 | 36.29996 | 113.17058 | 22447 ft | 444 kts | 220° |
| 2026-04-20 15:53 | 36.27426 | 113.14902 | 22049 ft | 452 kts | 212° |
| 2026-04-20 15:54 | 36.24476 | 113.13587 | 21789 ft | 451 kts | 195° |
| 2026-04-20 15:54 | 36.21374 | 113.13350 | 21301 ft | 445 kts | 181° |
| 2026-04-20 15:54 | 36.18393 | 113.14031 | 21027 ft | 445 kts | 167° |
| 2026-04-20 15:54 | 36.15471 | 113.15321 | 20905 ft | 445 kts | 163° |
| 2026-04-20 15:55 | 36.12571 | 113.16678 | 20906 ft | 448 kts | 163° |
| 2026-04-20 15:55 | 36.09654 | 113.18047 | 20882 ft | 448 kts | 163° |
| 2026-04-20 15:55 | 36.06750 | 113.19393 | 20880 ft | 443 kts | 163° |
| 2026-04-20 15:55 | 36.03866 | 113.20710 | 20884 ft | 441 kts | 164° |
| 2026-04-20 15:56 | 36.00988 | 113.22007 | 20885 ft | 441 kts | 164° |
| 2026-04-20 15:56 | 35.98101 | 113.23299 | 20897 ft | 441 kts | 164° |
| 2026-04-20 15:56 | 35.95216 | 113.24586 | 20894 ft | 441 kts | 164° |
| 2026-04-20 15:56 | 35.92366 | 113.25858 | 20898 ft | 442 kts | 164° |
| 2026-04-20 15:57 | 35.89475 | 113.27149 | 20901 ft | 442 kts | 164° |
| 2026-04-20 15:57 | 35.86581 | 113.28441 | 20900 ft | 443 kts | 164° |
| 2026-04-20 15:57 | 35.83683 | 113.29733 | 20880 ft | 443 kts | 164° |
| 2026-04-20 15:57 | 35.80788 | 113.31027 | 20891 ft | 443 kts | 164° |
| 2026-04-20 15:58 | 35.77889 | 113.32323 | 20899 ft | 443 kts | 164° |
| 2026-04-20 15:58 | 35.74995 | 113.33618 | 20901 ft | 443 kts | 164° |
| 2026-04-20 15:58 | 35.72134 | 113.34897 | 20899 ft | 443 kts | 164° |
| 2026-04-20 15:58 | 35.69239 | 113.36190 | 20898 ft | 443 kts | 164° |
| 2026-04-20 15:59 | 35.66340 | 113.37484 | 20891 ft | 443 kts | 164° |
| 2026-04-20 15:59 | 35.63442 | 113.38774 | 20883 ft | 442 kts | 164° |
| 2026-04-20 15:59 | 35.60552 | 113.40055 | 20885 ft | 441 kts | 164° |
| 2026-04-20 15:59 | 35.57666 | 113.41339 | 20885 ft | 440 kts | 164° |
| 2026-04-20 16:00 | 35.54791 | 113.42616 | 20892 ft | 440 kts | 164° |
| 2026-04-20 16:00 | 35.51920 | 113.43896 | 20872 ft | 439 kts | 164° |
| 2026-04-20 16:00 | 35.49042 | 113.45170 | 20584 ft | 443 kts | 164° |
| 2026-04-20 16:00 | 35.46132 | 113.46453 | 19986 ft | 439 kts | 164° |
| 2026-04-20 16:01 | 35.43354 | 113.47686 | 19467 ft | 422 kts | 164° |
| 2026-04-20 16:01 | 35.40608 | 113.48918 | 18973 ft | 419 kts | 164° |
| 2026-04-20 16:01 | 35.37876 | 113.50146 | 18445 ft | 418 kts | 163° |
| 2026-04-20 16:01 | 35.35148 | 113.51372 | 17864 ft | 416 kts | 163° |
| 2026-04-20 16:02 | 35.32441 | 113.52588 | 17321 ft | 413 kts | 163° |
| 2026-04-20 16:02 | 35.29754 | 113.53793 | 16802 ft | 410 kts | 162° |
| 2026-04-20 16:02 | 35.27088 | 113.54988 | 16310 ft | 407 kts | 162° |
| 2026-04-20 16:02 | 35.24441 | 113.56173 | 15800 ft | 404 kts | 162° |
| 2026-04-20 16:03 | 35.21847 | 113.57334 | 15301 ft | 401 kts | 162° |
| 2026-04-20 16:03 | 35.19232 | 113.58503 | 14804 ft | 399 kts | 162° |
| 2026-04-20 16:03 | 35.16632 | 113.59664 | 14314 ft | 397 kts | 161° |
| 2026-04-20 16:03 | 35.14045 | 113.60819 | 13789 ft | 395 kts | 161° |
| 2026-04-20 16:04 | 35.11469 | 113.61969 | 13254 ft | 393 kts | 161° |
| 2026-04-20 16:04 | 35.08917 | 113.63106 | 12729 ft | 389 kts | 161° |
| 2026-04-20 16:04 | 35.06378 | 113.64221 | 12225 ft | 386 kts | 161° |
| 2026-04-20 16:04 | 35.03875 | 113.65308 | 11592 ft | 376 kts | 161° |
| 2026-04-20 16:05 | 35.01502 | 113.66337 | 11204 ft | 359 kts | 161° |
| 2026-04-20 16:05 | 34.99173 | 113.67347 | 10941 ft | 352 kts | 161° |
| 2026-04-20 16:05 | 34.96898 | 113.68334 | 10770 ft | 342 kts | 161° |
| 2026-04-20 16:05 | 34.94693 | 113.69292 | 10616 ft | 332 kts | 160° |
| 2026-04-20 16:06 | 34.92549 | 113.70223 | 10465 ft | 322 kts | 160° |
| 2026-04-20 16:06 | 34.90472 | 113.71124 | 10334 ft | 312 kts | 160° |
| 2026-04-20 16:06 | 34.88446 | 113.71874 | 10187 ft | 297 kts | 173° |
| 2026-04-20 16:06 | 34.86437 | 113.71674 | 10079 ft | 287 kts | 198° |
| 2026-04-20 16:07 | 34.84674 | 113.70642 | 9953 ft | 279 kts | 213° |
| 2026-04-20 16:07 | 34.83233 | 113.69120 | 9646 ft | 277 kts | 225° |
| 2026-04-20 16:07 | 34.81931 | 113.67395 | 9322 ft | 276 kts | 227° |
| 2026-04-20 16:07 | 34.80658 | 113.65649 | 8984 ft | 276 kts | 227° |
| 2026-04-20 16:08 | 34.79385 | 113.63912 | 8647 ft | 275 kts | 226° |
| 2026-04-20 16:08 | 34.78106 | 113.62189 | 8318 ft | 274 kts | 226° |
| 2026-04-20 16:08 | 34.76832 | 113.60493 | 8147 ft | 266 kts | 225° |
| 2026-04-20 16:08 | 34.75603 | 113.58868 | 8010 ft | 257 kts | 225° |
| 2026-04-20 16:09 | 34.74398 | 113.57280 | 7707 ft | 254 kts | 225° |
| 2026-04-20 16:09 | 34.73217 | 113.55727 | 7373 ft | 253 kts | 225° |
| 2026-04-20 16:09 | 34.71862 | 113.54473 | 7031 ft | 241 kts | 202° |
| 2026-04-20 16:09 | 34.70324 | 113.53703 | 6755 ft | 237 kts | 198° |
| 2026-04-20 16:10 | 34.68791 | 113.52990 | 6444 ft | 235 kts | 198° |
| 2026-04-20 16:10 | 34.67270 | 113.52308 | 6125 ft | 229 kts | 189° |
| 2026-04-20 16:10 | 34.65755 | 113.52406 | 5821 ft | 213 kts | 153° |
| 2026-04-20 16:10 | 34.64695 | 113.53493 | 5592 ft | 194 kts | 121° |
| 2026-04-20 16:11 | 34.64055 | 113.54863 | 5377 ft | 179 kts | 117° |
| 2026-04-20 16:11 | 34.63518 | 113.56151 | 5137 ft | 163 kts | 114° |
| 2026-04-20 16:11 | 34.63065 | 113.57362 | 4969 ft | 156 kts | 112° |
| 2026-04-20 16:11 | 34.62636 | 113.58573 | 4798 ft | 161 kts | 111° |
| 2026-04-20 16:12 | 34.62202 | 113.59826 | 4581 ft | 160 kts | 111° |
| 2026-04-20 16:12 | 34.61774 | 113.61072 | 4376 ft | 159 kts | 111° |
| 2026-04-20 16:12 | 34.61353 | 113.62309 | 4188 ft | 158 kts | 111° |
| 2026-04-20 16:12 | 34.60937 | 113.63535 | 4001 ft | 156 kts | 111° |
| 2026-04-20 16:13 | 34.60523 | 113.64752 | 3882 ft | 159 kts | 111° |
| 2026-04-20 16:13 | 34.60098 | 113.66004 | 3670 ft | 160 kts | 111° |
| 2026-04-20 16:13 | 34.59675 | 113.67250 | 3460 ft | 159 kts | 112° |
| 2026-04-20 16:13 | 34.59255 | 113.68486 | 3247 ft | 158 kts | 112° |
| 2026-04-20 16:14 | 34.58835 | 113.69722 | 3040 ft | 159 kts | 112° |
| 2026-04-20 16:14 | 34.58421 | 113.70942 | 2827 ft | 158 kts | 113° |
| 2026-04-20 16:14 | 34.58001 | 113.72176 | 2611 ft | 158 kts | 113° |
| 2026-04-20 16:14 | 34.57582 | 113.73409 | 2405 ft | 158 kts | 113° |
| 2026-04-20 16:15 | 34.57164 | 113.74638 | 2189 ft | 158 kts | 114° |
| 2026-04-20 16:15 | 34.56748 | 113.75863 | 1985 ft | 156 kts | 114° |
| 2026-04-20 16:15 | 34.56338 | 113.77070 | 1758 ft | 154 kts | 114° |
| 2026-04-20 16:15 | 34.55929 | 113.78269 | 1571 ft | 155 kts | 114° |
| 2026-04-20 16:16 | 34.55518 | 113.79480 | 1352 ft | 154 kts | 114° |
| 2026-04-20 16:16 | 34.55114 | 113.80666 | 1142 ft | 155 kts | 113° |
| 2026-04-20 16:16 | 34.54707 | 113.81868 | 941 ft | 154 kts | 114° |
| 2026-04-20 16:16 | 34.54295 | 113.83070 | 736 ft | 155 kts | 114° |
| 2026-04-20 16:17 | 34.53858 | 113.84273 | 563 ft | 157 kts | 113° |
| 2026-04-20 16:17 | 34.53464 | 113.85452 | 502 ft | 136 kts | 110° |
| 2026-04-20 16:17 | 34.53189 | 113.86310 | 499 ft | 83 kts | 112° |
| 2026-04-20 16:17 | 34.53061 | 113.86757 | 490 ft | 34 kts | 81° |
| 2026-04-20 16:18 | 34.53077 | 113.86898 | 501 ft | 0 kts | 84° |
| 2026-04-20 16:23 | 34.53077 | 113.86899 | 501 ft | 1 kts | 84° |
| 2026-04-20 16:23 | 34.53078 | 113.86913 | 501 ft | 2 kts | 84° |
| 2026-04-20 16:23 | 34.53080 | 113.86934 | 502 ft | 3 kts | 84° |
| 2026-04-20 16:24 | 34.53082 | 113.86960 | 503 ft | 3 kts | 84° |
| 2026-04-20 16:24 | 34.53085 | 113.86991 | 504 ft | 4 kts | 84° |
| 2026-04-20 16:24 | 34.53088 | 113.87032 | 505 ft | 6 kts | 85° |
| 2026-04-20 16:24 | 34.53088 | 113.87088 | 506 ft | 8 kts | 93° |
| 2026-04-20 16:25 | 34.53077 | 113.87163 | 507 ft | 11 kts | 108° |
| 2026-04-20 16:25 | 34.53011 | 113.87210 | 505 ft | 14 kts | 191° |
| 2026-04-20 16:25 | 34.52890 | 113.87159 | 493 ft | 22 kts | 201° |
| 2026-04-20 16:25 | 34.52777 | 113.87093 | 506 ft | 16 kts | 226° |
| 2026-04-20 16:26 | 34.52781 | 113.86966 | 507 ft | 16 kts | 290° |
| 2026-04-20 16:26 | 34.52825 | 113.86829 | 507 ft | 19 kts | 292° |
| 2026-04-20 16:26 | 34.52837 | 113.86795 | 507 ft | 0 kts | 294° |
| 2026-04-20 16:27 | 34.52841 | 113.86785 | 507 ft | 3 kts | 294° |
| 2026-04-20 16:27 | 34.52853 | 113.86752 | 507 ft | 6 kts | 294° |
| 2026-04-20 16:28 | 34.52872 | 113.86700 | 507 ft | 8 kts | 293° |
| 2026-04-20 16:28 | 34.52896 | 113.86627 | 507 ft | 10 kts | 290° |
| 2026-04-20 16:28 | 34.52924 | 113.86536 | 507 ft | 13 kts | 290° |
| 2026-04-20 16:28 | 34.52958 | 113.86429 | 507 ft | 14 kts | 294° |
| 2026-04-20 16:29 | 34.53002 | 113.86312 | 508 ft | 16 kts | 294° |
| 2026-04-20 16:29 | 34.53047 | 113.86188 | 508 ft | 16 kts | 294° |
| 2026-04-20 16:29 | 34.53087 | 113.86064 | 508 ft | 7 kts | 290° |
| 2026-04-20 16:29 | 34.53107 | 113.86002 | 508 ft | 8 kts | 292° |
| 2026-04-20 16:30 | 34.53131 | 113.85933 | 508 ft | 9 kts | 292° |
| 2026-04-20 16:30 | 34.53139 | 113.85853 | 509 ft | 10 kts | 251° |
| 2026-04-20 16:30 | 34.53088 | 113.85798 | 509 ft | 10 kts | 209° |
| 2026-04-20 16:30 | 34.53022 | 113.85760 | 510 ft | 11 kts | 205° |
| 2026-04-20 16:31 | 34.52949 | 113.85723 | 510 ft | 12 kts | 201° |
| 2026-04-20 16:31 | 34.52870 | 113.85684 | 510 ft | 13 kts | 208° |
| 2026-04-20 16:31 | 34.52836 | 113.85593 | 510 ft | 13 kts | 276° |
| 2026-04-20 16:31 | 34.52864 | 113.85487 | 510 ft | 14 kts | 272° |
| 2026-04-20 16:32 | 34.52847 | 113.85417 | 510 ft | 6 kts | 249° |
| 2026-04-20 16:32 | 34.52837 | 113.85373 | 510 ft | 0 kts | 250° |
| 2026-04-20 16:32 | 34.52836 | 113.85369 | 510 ft | 0 kts | 250° |
| 2026-04-20 16:32 | 34.52834 | 113.85360 | 510 ft | 2 kts | 250° |
| 2026-04-20 16:33 | 34.52829 | 113.85339 | 510 ft | 3 kts | 262° |
| 2026-04-20 16:33 | 34.52833 | 113.85316 | 510 ft | 0 kts | 287° |
| 2026-04-20 16:33 | 34.52822 | 113.85361 | 510 ft | 15 kts | 287° |
| 2026-04-20 16:33 | 34.52820 | 113.85371 | 510 ft | 0 kts | 287° |
| 2026-04-20 16:34 | 34.52820 | 113.85370 | 510 ft | 0 kts | 287° |
| 2026-04-20 16:34 | 34.52820 | 113.85367 | 510 ft | 0 kts | 287° |
| 2026-04-20 16:34 | 34.52821 | 113.85362 | 510 ft | 1 kts | 281° |
| 2026-04-20 16:34 | 34.52822 | 113.85355 | 510 ft | 1 kts | 281° |
| 2026-04-20 16:35 | 34.52824 | 113.85346 | 510 ft | 1 kts | 282° |
| 2026-04-20 16:35 | 34.52826 | 113.85335 | 510 ft | 1 kts | 283° |
| 2026-04-20 16:35 | 34.52827 | 113.85329 | 510 ft | 0 kts | 286° |
| 2026-04-20 16:36 | 34.52827 | 113.85328 | 510 ft | 0 kts | 285° |
| 2026-04-20 16:36 | 34.52828 | 113.85327 | 510 ft | 1 kts | 287° |
| 2026-04-20 16:36 | 34.52829 | 113.85323 | 510 ft | 1 kts | 289° |
| 2026-04-20 16:36 | 34.52826 | 113.85333 | 510 ft | 4 kts | 295° |
| 2026-04-20 16:37 | 34.52819 | 113.85353 | 510 ft | 0 kts | 293° |
| 2026-04-20 16:37 | 34.52823 | 113.85337 | 510 ft | 4 kts | 289° |
| 2026-04-20 16:37 | 34.52826 | 113.85328 | 510 ft | 0 kts | 289° |